createdAt,value
2022-08-17T00:02:26.259Z,12.77
2022-08-17T00:04:55.003Z,7.80
2022-08-17T00:07:22.376Z,12.55
2022-08-17T00:09:49.345Z,9.15
2022-08-17T00:12:41.114Z,9.98
2022-08-17T00:15:06.228Z,9.13
2022-08-17T00:17:37.534Z,9.30
2022-08-17T00:20:05.101Z,9.77
2022-08-17T00:22:36.316Z,9.38
2022-08-17T00:25:12.064Z,9.18
2022-08-17T00:27:39.285Z,10.10
2022-08-17T00:30:07.726Z,9.38
2022-08-17T00:33:23.066Z,8.48
2022-08-17T00:35:31.853Z,11.75
2022-08-17T00:37:58.707Z,9.90
2022-08-17T00:40:25.545Z,9.35
2022-08-17T00:42:53.465Z,9.30
2022-08-17T00:45:20.849Z,9.18
2022-08-17T00:47:48.490Z,11.57
2022-08-17T00:50:17.941Z,9.55
2022-08-17T00:52:54.764Z,9.32
2022-08-17T00:55:23.866Z,9.20
2022-08-17T00:57:55.523Z,9.85
2022-08-17T01:00:26.856Z,10.02
2022-08-17T01:03:00.444Z,10.07
2022-08-17T01:05:30.919Z,9.15
2022-08-17T01:08:00.244Z,10.05
2022-08-17T01:10:58.691Z,10.65
2022-08-17T01:13:31.245Z,16.35
2022-08-17T01:16:06.728Z,10.30
2022-08-17T01:18:34.738Z,9.50
2022-08-17T01:21:14.084Z,9.77
2022-08-17T01:23:42.607Z,10.10
2022-08-17T01:26:09.428Z,9.85
2022-08-17T01:28:54.328Z,10.15
2022-08-17T01:31:23.975Z,10.05
2022-08-17T01:33:51.476Z,10.50
2022-08-17T01:36:18.283Z,15.98
2022-08-17T01:38:45.063Z,11.45
2022-08-17T01:41:15.615Z,10.30
2022-08-17T01:43:57.477Z,10.40
2022-08-17T01:46:29.892Z,10.82
2022-08-17T01:48:58.169Z,11.15
2022-08-17T01:51:27.874Z,9.93
2022-08-17T01:53:58.727Z,10.85
2022-08-17T01:56:27.947Z,10.45
2022-08-17T01:58:55.634Z,11.65
2022-08-17T02:01:27.859Z,10.80
2022-08-17T02:03:59.778Z,10.30
2022-08-17T02:06:47.125Z,10.95
2022-08-17T02:09:23.410Z,10.32
2022-08-17T02:11:54.232Z,10.52
2022-08-17T02:14:22.704Z,9.85
2022-08-17T02:16:49.813Z,11.93
2022-08-17T02:19:16.985Z,9.52
2022-08-17T02:21:47.140Z,10.68
2022-08-17T02:24:58.160Z,11.18
2022-08-17T02:27:07.378Z,10.13
2022-08-17T02:29:34.262Z,14.27
2022-08-17T02:32:02.027Z,9.95
2022-08-17T02:34:30.005Z,9.48
2022-08-17T02:36:56.812Z,9.85
2022-08-17T02:39:24.148Z,9.32
2022-08-17T02:41:59.808Z,10.05
2022-08-17T02:44:39.023Z,10.82
2022-08-17T02:47:08.717Z,9.50
2022-08-17T02:49:36.282Z,9.73
2022-08-17T02:52:04.518Z,11.25
2022-08-17T02:54:40.210Z,10.25
2022-08-17T02:57:09.104Z,10.88
2022-08-17T02:59:36.274Z,11.23
2022-08-17T03:02:04.410Z,9.45
2022-08-17T03:04:31.722Z,10.00
2022-08-17T03:07:02.752Z,10.50
2022-08-17T03:09:29.944Z,10.18
2022-08-17T03:12:04.584Z,9.27
2022-08-17T03:14:32.449Z,11.00
2022-08-17T03:16:59.692Z,10.30
2022-08-17T03:19:26.868Z,14.32
2022-08-17T03:21:54.957Z,10.60
2022-08-17T03:24:28.592Z,10.48
2022-08-17T03:26:56.380Z,9.80
2022-08-17T03:29:23.839Z,11.93
2022-08-17T03:31:52.346Z,9.95
2022-08-17T03:34:20.070Z,10.82
2022-08-17T03:36:47.333Z,9.68
2022-08-17T03:39:14.529Z,9.43
2022-08-17T03:41:41.718Z,10.27
2022-08-17T03:44:09.074Z,9.80
2022-08-17T03:46:55.745Z,12.23
2022-08-17T03:49:42.187Z,10.32
2022-08-17T03:52:28.182Z,10.05
2022-08-17T03:55:36.421Z,9.32
2022-08-17T03:58:04.490Z,10.18
2022-08-17T04:00:31.794Z,11.85
2022-08-17T04:02:58.990Z,10.57
2022-08-17T04:05:26.420Z,10.15
2022-08-17T04:07:53.599Z,10.63
2022-08-17T04:10:24.749Z,11.40
2022-08-17T04:12:54.803Z,10.32
2022-08-17T04:15:23.080Z,10.13
2022-08-17T04:17:50.499Z,12.80
2022-08-17T04:20:18.489Z,11.20
2022-08-17T04:22:57.967Z,10.70
2022-08-17T04:25:25.207Z,16.33
2022-08-17T04:27:52.414Z,14.10
2022-08-17T04:30:19.754Z,11.93
2022-08-17T04:33:00.689Z,14.43
2022-08-17T04:35:35.741Z,11.50
2022-08-17T04:38:02.963Z,11.18
2022-08-17T04:40:48.695Z,10.90
2022-08-17T04:43:20.639Z,11.13
2022-08-17T04:45:55.013Z,12.13
2022-08-17T04:48:23.973Z,11.10
2022-08-17T04:51:02.004Z,11.20
2022-08-17T04:53:29.260Z,11.32
2022-08-17T04:55:58.960Z,16.10
2022-08-17T04:58:26.139Z,11.10
2022-08-17T05:00:53.373Z,12.50
2022-08-17T05:03:20.781Z,13.63
2022-08-17T05:05:49.999Z,13.57
2022-08-17T05:08:19.555Z,14.73
2022-08-17T05:10:47.982Z,11.20
2022-08-17T05:13:20.255Z,11.35
2022-08-17T05:15:48.444Z,13.43
2022-08-17T05:18:16.257Z,10.73
2022-08-17T05:20:43.770Z,10.63
2022-08-17T05:23:12.856Z,12.20
2022-08-17T05:25:41.920Z,10.45
2022-08-17T05:28:13.690Z,10.75
2022-08-17T05:30:42.765Z,10.40
2022-08-17T05:33:12.432Z,10.20
2022-08-17T05:35:42.570Z,9.65
2022-08-17T05:38:09.785Z,10.75
2022-08-17T05:40:37.292Z,10.23
2022-08-17T05:43:24.251Z,11.57
2022-08-17T05:46:01.109Z,11.77
2022-08-17T05:48:36.791Z,9.05
2022-08-17T05:51:06.994Z,9.85
2022-08-17T05:53:49.909Z,9.70
2022-08-17T05:56:29.266Z,17.25
2022-08-17T05:59:09.865Z,16.60
2022-08-17T06:01:55.687Z,13.13
2022-08-17T06:04:23.064Z,19.02
2022-08-17T06:06:59.260Z,9.85
2022-08-17T06:09:31.501Z,10.32
2022-08-17T06:12:07.518Z,14.75
2022-08-17T06:14:41.561Z,8.25
2022-08-17T06:17:13.548Z,10.98
2022-08-17T06:19:51.585Z,6.60
2022-08-17T06:22:21.434Z,6.65
2022-08-17T06:24:56.753Z,9.60
2022-08-17T06:27:30.385Z,12.05
2022-08-17T06:30:19.738Z,6.68
2022-08-17T06:32:48.050Z,10.00
2022-08-17T06:35:18.503Z,8.93
2022-08-17T06:38:04.657Z,7.45
2022-08-17T06:40:45.716Z,10.23
2022-08-17T06:43:34.586Z,11.48
2022-08-17T06:46:11.667Z,9.52
2022-08-17T06:48:44.982Z,8.23
2022-08-17T06:51:18.791Z,8.05
2022-08-17T06:53:45.972Z,9.63
2022-08-17T06:56:52.987Z,5.57
2022-08-17T06:59:25.299Z,8.00
2022-08-17T07:01:53.985Z,9.40
2022-08-17T07:04:23.505Z,11.10
2022-08-17T07:06:53.829Z,15.40
2022-08-17T07:09:30.240Z,6.30
2022-08-17T07:12:09.959Z,10.50
2022-08-17T07:14:40.994Z,6.57
2022-08-17T07:17:16.717Z,8.60
2022-08-17T07:19:47.653Z,7.95
2022-08-17T07:22:21.983Z,10.10
2022-08-17T07:24:53.501Z,13.77
2022-08-17T07:27:21.383Z,11.23
2022-08-17T07:29:49.550Z,10.60
2022-08-17T07:32:19.818Z,13.93
2022-08-17T07:35:05.107Z,10.55
2022-08-17T07:37:33.330Z,9.57
2022-08-17T07:40:16.147Z,13.02
2022-08-17T07:42:55.088Z,9.88
2022-08-17T07:45:40.930Z,10.95
2022-08-17T07:48:20.050Z,13.07
2022-08-17T07:50:47.586Z,14.95
2022-08-17T07:53:18.824Z,14.32
2022-08-17T07:55:46.085Z,16.00
2022-08-17T07:58:20.733Z,13.45
2022-08-17T08:01:04.449Z,11.30
2022-08-17T08:03:34.020Z,15.80
2022-08-17T08:06:03.346Z,13.50
2022-08-17T08:08:36.262Z,21.08
2022-08-17T08:11:11.714Z,14.80
2022-08-17T08:13:42.738Z,15.07
2022-08-17T08:16:20.887Z,16.25
2022-08-17T08:18:56.920Z,17.75
2022-08-17T08:21:29.435Z,16.80
2022-08-17T08:24:01.689Z,15.60
2022-08-17T08:26:38.630Z,15.05
2022-08-17T08:29:28.240Z,15.30
2022-08-17T08:32:14.319Z,16.45
2022-08-17T08:35:05.416Z,15.05
2022-08-17T08:37:43.460Z,15.55
2022-08-17T08:40:23.319Z,16.38
2022-08-17T08:42:53.421Z,14.90
2022-08-17T08:45:26.229Z,19.08
2022-08-17T08:48:23.092Z,14.23
2022-08-17T08:51:00.858Z,14.93
2022-08-17T08:53:47.768Z,16.52
2022-08-17T08:56:21.115Z,18.75
2022-08-17T08:58:51.205Z,15.55
2022-08-17T09:01:41.448Z,16.83
2022-08-17T09:04:27.731Z,16.45
2022-08-17T09:07:05.278Z,16.08
2022-08-17T09:09:44.825Z,19.13
2022-08-17T09:12:18.409Z,18.35
2022-08-17T09:14:52.397Z,18.38
2022-08-17T09:17:21.554Z,19.90
2022-08-17T09:20:04.747Z,18.88
2022-08-17T09:22:37.976Z,17.35
2022-08-17T09:25:16.488Z,19.45
2022-08-17T09:28:06.912Z,17.52
2022-08-17T09:30:43.518Z,18.08
2022-08-17T09:33:12.212Z,18.77
2022-08-17T09:35:41.649Z,20.08
2022-08-17T09:38:22.105Z,23.75
2022-08-17T09:40:52.445Z,23.40
2022-08-17T09:43:38.341Z,29.00
2022-08-17T09:46:11.343Z,19.70
2022-08-17T09:48:41.284Z,20.25
2022-08-17T09:51:13.618Z,19.08
2022-08-17T09:53:41.454Z,19.83
2022-08-17T09:56:08.790Z,21.85
2022-08-17T09:58:45.028Z,21.77
2022-08-17T10:01:35.421Z,21.70
2022-08-17T10:04:20.048Z,23.45
2022-08-17T10:07:06.706Z,22.25
2022-08-17T10:09:40.251Z,23.02
2022-08-17T10:12:17.902Z,24.17
2022-08-17T10:14:53.544Z,25.20
2022-08-17T10:17:42.999Z,24.67
2022-08-17T10:20:10.388Z,29.88
2022-08-17T10:23:00.332Z,28.13
2022-08-17T10:25:55.132Z,27.65
2022-08-17T10:28:28.915Z,26.42
2022-08-17T10:31:17.021Z,25.38
2022-08-17T10:33:53.433Z,28.88
2022-08-17T10:36:27.211Z,30.02
2022-08-17T10:39:10.607Z,30.42
2022-08-17T10:41:44.170Z,30.00
2022-08-17T10:44:37.452Z,31.25
2022-08-17T10:47:15.795Z,31.73
2022-08-17T10:49:47.830Z,39.22
2022-08-17T10:52:26.140Z,31.73
2022-08-17T10:54:59.117Z,32.83
2022-08-17T10:57:32.212Z,38.30
2022-08-17T11:00:00.458Z,39.83
2022-08-17T11:02:33.408Z,32.78
2022-08-17T11:05:22.281Z,29.75
2022-08-17T11:07:49.655Z,35.35
2022-08-17T11:10:25.369Z,32.78
2022-08-17T11:13:07.891Z,31.13
2022-08-17T11:15:51.319Z,31.55
2022-08-17T11:18:22.243Z,34.60
2022-08-17T11:20:59.579Z,34.30
2022-08-17T11:23:29.682Z,39.10
2022-08-17T11:26:08.577Z,37.45
2022-08-17T11:28:46.454Z,40.15
2022-08-17T11:31:39.117Z,39.25
2022-08-17T11:34:13.585Z,36.80
2022-08-17T11:36:53.154Z,36.88
2022-08-17T11:39:26.161Z,39.88
2022-08-17T11:41:53.616Z,40.58
2022-08-17T11:44:39.126Z,39.65
2022-08-17T11:47:28.013Z,41.08
2022-08-17T11:50:22.456Z,38.58
2022-08-17T11:52:52.150Z,43.53
2022-08-17T11:55:39.317Z,42.22
2022-08-17T11:58:09.200Z,50.33
2022-08-17T12:00:45.410Z,46.67
2022-08-17T12:03:25.089Z,47.97
2022-08-17T12:06:00.993Z,56.58
2022-08-17T12:08:30.406Z,46.20
2022-08-17T12:10:57.577Z,42.05
2022-08-17T12:13:27.406Z,46.83
2022-08-17T12:16:07.202Z,41.33
2022-08-17T12:18:35.807Z,40.67
2022-08-17T12:21:22.181Z,50.67
2022-08-17T12:23:57.637Z,44.85
2022-08-17T12:26:30.992Z,43.63
2022-08-17T12:29:01.123Z,50.72
2022-08-17T12:31:58.334Z,44.63
2022-08-17T12:34:27.391Z,48.10
2022-08-17T12:36:59.782Z,46.75
2022-08-17T12:39:27.873Z,46.88
2022-08-17T12:42:02.781Z,49.75
2022-08-17T12:44:32.242Z,46.75
2022-08-17T12:47:04.774Z,48.08
2022-08-17T12:49:32.007Z,50.03
2022-08-17T12:52:06.111Z,46.83
2022-08-17T12:54:51.803Z,48.33
2022-08-17T12:57:21.431Z,47.80
2022-08-17T12:59:51.185Z,50.92
2022-08-17T13:02:39.446Z,51.72
2022-08-17T13:05:08.353Z,49.55
2022-08-17T13:07:42.646Z,43.85
2022-08-17T13:10:16.052Z,46.40
2022-08-17T13:12:43.479Z,42.30
2022-08-17T13:15:18.384Z,42.58
2022-08-17T13:17:56.645Z,41.60
2022-08-17T13:20:23.861Z,42.50
2022-08-17T13:22:55.933Z,42.40
2022-08-17T13:25:23.414Z,42.25
2022-08-17T13:27:52.842Z,44.03
2022-08-17T13:30:24.631Z,52.88
2022-08-17T13:32:53.939Z,41.85
2022-08-17T13:35:33.006Z,45.10
2022-08-17T13:38:06.869Z,42.70
2022-08-17T13:40:41.596Z,39.92
2022-08-17T13:43:09.471Z,40.97
2022-08-17T13:45:39.617Z,40.78
2022-08-17T13:48:12.412Z,44.40
2022-08-17T13:50:56.583Z,43.75
2022-08-17T13:53:40.222Z,46.50
2022-08-17T13:56:37.008Z,43.60
2022-08-17T13:58:55.339Z,45.65
2022-08-17T14:01:33.534Z,46.67
2022-08-17T14:04:02.108Z,48.85
2022-08-17T14:06:51.740Z,49.78
2022-08-17T14:09:21.657Z,50.38
2022-08-17T14:11:49.685Z,49.50
2022-08-17T14:14:17.195Z,46.78
2022-08-17T14:16:44.525Z,51.70
2022-08-17T14:19:13.140Z,47.60
2022-08-17T14:21:42.913Z,50.22
2022-08-17T14:24:21.127Z,46.83
2022-08-17T14:26:48.716Z,46.00
2022-08-17T14:29:15.760Z,51.83
2022-08-17T14:31:42.814Z,49.35
2022-08-17T14:34:20.727Z,51.33
2022-08-17T14:36:48.856Z,49.03
2022-08-17T14:39:16.728Z,49.67
2022-08-17T14:41:44.417Z,52.58
2022-08-17T14:44:12.773Z,45.65
2022-08-17T14:46:41.053Z,43.08
2022-08-17T14:49:12.177Z,44.65
2022-08-17T14:51:44.082Z,45.05
2022-08-17T14:54:33.076Z,42.97
2022-08-17T14:57:24.867Z,39.03
2022-08-17T14:59:49.224Z,42.28
2022-08-17T15:02:29.751Z,34.80
2022-08-17T15:05:04.348Z,36.38
2022-08-17T15:07:31.940Z,38.28
2022-08-17T15:10:02.637Z,38.20
2022-08-17T15:12:34.647Z,36.67
2022-08-17T15:15:04.721Z,35.60
2022-08-17T15:17:44.333Z,41.45
2022-08-17T15:20:27.878Z,34.30
2022-08-17T15:22:56.103Z,31.70
2022-08-17T15:25:24.955Z,32.63
2022-08-17T15:27:52.450Z,33.72
2022-08-17T15:30:19.740Z,31.40
2022-08-17T15:32:51.256Z,29.65
2022-08-17T15:35:27.426Z,30.52
2022-08-17T15:38:06.207Z,28.35
2022-08-17T15:40:37.493Z,27.75
2022-08-17T15:43:22.027Z,27.80
2022-08-17T15:46:05.036Z,29.35
2022-08-17T15:48:42.946Z,33.53
2022-08-17T15:51:26.385Z,35.05
2022-08-17T15:53:55.820Z,28.80
2022-08-17T15:56:23.476Z,36.20
2022-08-17T15:58:50.273Z,34.15
2022-08-17T16:02:33.657Z,34.67
2022-08-17T16:04:26.407Z,39.55
2022-08-17T16:06:54.839Z,39.42
2022-08-17T16:09:21.621Z,38.22
2022-08-17T16:11:53.736Z,36.33
2022-08-17T16:14:23.178Z,43.53
2022-08-17T16:16:51.644Z,39.60
2022-08-17T16:19:18.461Z,38.47
2022-08-17T16:21:45.247Z,36.30
2022-08-17T16:24:13.454Z,38.53
2022-08-17T16:26:40.727Z,41.22
2022-08-17T16:29:08.480Z,43.67
2022-08-17T16:31:36.354Z,43.58
2022-08-17T16:34:16.838Z,41.75
2022-08-17T16:36:54.779Z,41.22
2022-08-17T16:39:23.021Z,38.88
2022-08-17T16:41:50.273Z,42.17
2022-08-17T16:44:21.323Z,44.15
2022-08-17T16:46:50.262Z,40.33
2022-08-17T16:49:36.216Z,40.25
2022-08-17T16:52:12.808Z,39.60
2022-08-17T16:54:43.811Z,39.90
2022-08-17T16:57:11.948Z,37.55
2022-08-17T16:59:42.717Z,38.22
2022-08-17T17:02:11.480Z,39.13
2022-08-17T17:04:43.536Z,38.38
2022-08-17T17:07:34.090Z,56.80
2022-08-17T17:10:14.940Z,179.50
2022-08-17T17:13:03.695Z,471.80
2022-08-17T17:15:34.661Z,311.15
2022-08-17T17:18:06.996Z,625.00
2022-08-17T17:20:40.038Z,301.08
2022-08-17T17:23:16.165Z,43.38
2022-08-17T17:25:55.475Z,37.85
2022-08-17T17:28:25.824Z,36.50
2022-08-17T17:30:56.713Z,41.20
2022-08-17T17:33:32.811Z,44.67
2022-08-17T17:36:06.912Z,41.28
2022-08-17T17:38:39.500Z,37.92
2022-08-17T17:41:09.322Z,34.92
2022-08-17T17:43:40.059Z,32.95
2022-08-17T17:46:28.219Z,34.50
2022-08-17T17:48:57.024Z,33.58
2022-08-17T17:52:06.719Z,30.95
2022-08-17T17:54:33.787Z,32.53
2022-08-17T17:57:07.584Z,33.78
2022-08-17T17:59:44.118Z,36.40
2022-08-17T18:02:59.617Z,33.88
2022-08-17T18:05:29.836Z,30.77
2022-08-17T18:08:10.636Z,35.15
2022-08-17T18:10:48.975Z,34.10
2022-08-17T18:13:16.370Z,42.13
2022-08-17T18:15:51.493Z,32.50
2022-08-17T18:18:37.725Z,29.70
2022-08-17T18:21:16.377Z,34.70
2022-08-17T18:23:53.353Z,30.02
2022-08-17T18:26:36.559Z,31.80
2022-08-17T18:29:24.526Z,28.98
2022-08-17T18:32:10.558Z,33.17
2022-08-17T18:34:47.357Z,35.65
2022-08-17T18:37:30.204Z,31.63
2022-08-17T18:39:57.651Z,32.60
2022-08-17T18:42:28.928Z,68.25
2022-08-17T18:44:56.528Z,95.30
2022-08-17T18:47:23.717Z,36.88
2022-08-17T18:49:58.572Z,30.92
2022-08-17T18:52:30.502Z,27.27
2022-08-17T18:55:00.556Z,27.83
2022-08-17T18:57:34.877Z,29.90
2022-08-17T19:00:10.877Z,33.20
2022-08-17T19:02:50.462Z,30.50
2022-08-17T19:05:29.976Z,29.02
2022-08-17T19:08:15.173Z,28.77
2022-08-17T19:10:46.808Z,28.52
2022-08-17T19:13:24.307Z,26.45
2022-08-17T19:16:12.190Z,26.88
2022-08-17T19:18:47.437Z,26.08
2022-08-17T19:21:26.324Z,26.15
2022-08-17T19:23:59.820Z,27.98
2022-08-17T19:26:53.398Z,27.15
2022-08-17T19:29:22.386Z,27.63
2022-08-17T19:31:50.645Z,28.58
2022-08-17T19:34:30.054Z,30.20
2022-08-17T19:37:03.628Z,28.33
2022-08-17T19:39:41.704Z,28.23
2022-08-17T19:42:14.908Z,29.35
2022-08-17T19:45:00.608Z,30.42
2022-08-17T19:47:58.539Z,31.58
2022-08-17T19:50:39.079Z,32.58
2022-08-17T19:53:41.994Z,28.23
2022-08-17T19:56:31.748Z,28.55
2022-08-17T19:59:10.703Z,32.15
2022-08-17T20:01:38.216Z,30.40
2022-08-17T20:04:12.255Z,49.05
2022-08-17T20:06:41.253Z,34.85
2022-08-17T20:09:15.081Z,30.38
2022-08-17T20:11:47.756Z,35.08
2022-08-17T20:14:18.664Z,30.83
2022-08-17T20:16:46.146Z,33.40
2022-08-17T20:19:13.350Z,32.80
2022-08-17T20:21:50.743Z,33.47
2022-08-17T20:24:26.461Z,30.33
2022-08-17T20:26:59.450Z,40.25
2022-08-17T20:29:39.666Z,36.05
2022-08-17T20:32:28.115Z,35.72
2022-08-17T20:35:08.621Z,38.92
2022-08-17T20:37:37.017Z,38.00
2022-08-17T20:40:09.098Z,41.78
2022-08-17T20:42:37.033Z,36.58
2022-08-17T20:45:26.135Z,37.10
2022-08-17T20:48:30.596Z,36.67
2022-08-17T20:50:52.578Z,41.67
2022-08-17T20:53:38.917Z,39.85
2022-08-17T20:56:06.493Z,39.63
2022-08-17T20:58:38.262Z,40.55
2022-08-17T21:01:13.530Z,41.13
2022-08-17T21:03:50.997Z,41.38
2022-08-17T21:06:20.641Z,44.08
2022-08-17T21:08:59.983Z,43.05
2022-08-17T21:11:57.356Z,47.60
2022-08-17T21:14:32.405Z,45.22
2022-08-17T21:17:15.213Z,42.47
2022-08-17T21:20:10.761Z,46.28
2022-08-17T21:22:38.910Z,49.72
2022-08-17T21:25:24.884Z,53.40
2022-08-17T21:28:16.876Z,48.72
2022-08-17T21:30:51.550Z,50.10
2022-08-17T21:33:32.016Z,50.83
2022-08-17T21:36:15.243Z,53.28
2022-08-17T21:38:57.463Z,55.17
2022-08-17T21:41:31.224Z,63.25
2022-08-17T21:44:12.971Z,57.95
2022-08-17T21:46:46.602Z,65.82
2022-08-17T21:49:16.822Z,63.00
2022-08-17T21:51:46.377Z,60.22
2022-08-17T21:54:32.082Z,65.38
2022-08-17T21:57:02.312Z,63.63
2022-08-17T21:59:38.105Z,71.30
2022-08-17T22:02:10.066Z,64.63
2022-08-17T22:04:38.849Z,66.82
2022-08-17T22:07:09.351Z,68.93
2022-08-17T22:09:46.400Z,83.55
2022-08-17T22:12:21.691Z,75.38
2022-08-17T22:15:00.599Z,80.00
2022-08-17T22:17:46.741Z,82.22
2022-08-17T22:20:21.123Z,80.25
2022-08-17T22:23:12.726Z,87.70
2022-08-17T22:25:57.402Z,72.75
2022-08-17T22:28:52.819Z,77.82
2022-08-17T22:31:22.445Z,75.90
2022-08-17T22:34:09.739Z,82.15
2022-08-17T22:36:39.392Z,93.95
2022-08-17T22:39:09.204Z,80.20
2022-08-17T22:41:51.101Z,80.93
2022-08-17T22:44:31.978Z,72.20
2022-08-17T22:47:16.496Z,70.72
2022-08-17T22:50:00.262Z,70.63
2022-08-17T22:53:16.577Z,80.28
2022-08-17T22:56:13.769Z,75.85
2022-08-17T22:59:17.851Z,69.75
2022-08-17T23:02:05.955Z,82.35
2022-08-17T23:04:36.450Z,74.40
2022-08-17T23:07:03.415Z,72.03
2022-08-17T23:09:30.196Z,82.47
2022-08-17T23:11:58.556Z,67.10
2022-08-17T23:14:31.459Z,66.93
2022-08-17T23:16:59.570Z,74.38
2022-08-17T23:19:27.584Z,60.47
2022-08-17T23:21:56.352Z,65.60
2022-08-17T23:24:26.072Z,71.03
2022-08-17T23:26:53.616Z,67.85
2022-08-17T23:29:24.562Z,72.57
2022-08-17T23:31:55.364Z,77.20
2022-08-17T23:34:23.151Z,85.00
2022-08-17T23:36:53.316Z,72.47
2022-08-17T23:39:28.001Z,76.53
2022-08-17T23:42:00.190Z,76.20
2022-08-17T23:44:29.105Z,73.43
2022-08-17T23:46:56.301Z,75.53
2022-08-17T23:49:25.144Z,69.05
2022-08-17T23:51:55.107Z,61.67
2022-08-17T23:54:29.314Z,63.50
2022-08-17T23:56:56.298Z,65.50
2022-08-17T23:59:23.583Z,65.72
